createdAt,value
2022-08-22T00:00:00.007Z,6.85
2022-08-22T00:02:48.332Z,6.38
2022-08-22T00:02:58.874Z,5.63
2022-08-22T00:03:09.502Z,5.82
2022-08-22T00:05:22.744Z,7.63
2022-08-22T00:10:31.461Z,8.27
2022-08-22T00:16:00.855Z,6.38
2022-08-22T00:21:22.019Z,6.55
2022-08-22T00:26:57.534Z,7.25
2022-08-22T00:32:23.786Z,8.10
2022-08-22T00:37:43.403Z,7.85
2022-08-22T00:42:53.802Z,8.80
2022-08-22T00:47:55.480Z,6.28
2022-08-22T00:53:11.196Z,7.60
2022-08-22T00:58:37.294Z,5.90
2022-08-22T01:03:46.647Z,7.43
2022-08-22T01:09:10.021Z,6.30
2022-08-22T01:14:11.650Z,8.07
2022-08-22T01:19:25.395Z,8.70
2022-08-22T01:25:18.349Z,9.88
2022-08-22T01:31:13.110Z,8.25
2022-08-22T01:36:36.865Z,7.43
2022-08-22T01:41:46.931Z,7.10
2022-08-22T01:47:23.191Z,7.53
2022-08-22T01:53:05.534Z,6.35
2022-08-22T01:58:42.912Z,7.13
2022-08-22T02:04:01.060Z,9.23
2022-08-22T02:09:39.368Z,7.57
2022-08-22T02:14:52.458Z,8.70
2022-08-22T02:20:01.486Z,9.50
2022-08-22T02:25:23.482Z,9.13
2022-08-22T02:30:44.428Z,8.68
2022-08-22T02:35:59.106Z,10.55
2022-08-22T02:41:44.035Z,7.95
2022-08-22T02:47:14.929Z,9.25
2022-08-22T02:52:40.218Z,8.27
2022-08-22T02:58:13.920Z,13.48
2022-08-22T03:03:25.815Z,11.40
2022-08-22T03:08:47.398Z,12.57
2022-08-22T03:14:14.572Z,7.28
2022-08-22T03:19:19.386Z,9.77
2022-08-22T03:24:25.517Z,12.15
2022-08-22T03:29:38.412Z,9.77
2022-08-22T03:34:59.508Z,13.25
2022-08-22T03:40:21.652Z,9.82
2022-08-22T03:45:44.660Z,9.02
2022-08-22T03:50:58.242Z,7.68
2022-08-22T03:56:37.216Z,8.98
2022-08-22T04:01:47.841Z,12.00
2022-08-22T04:07:32.148Z,9.77
2022-08-22T04:12:58.947Z,8.98
2022-08-22T04:18:19.589Z,8.07
2022-08-22T04:23:28.001Z,10.95
2022-08-22T04:28:39.711Z,9.40
2022-08-22T04:34:02.483Z,9.77
2022-08-22T04:39:19.213Z,10.23
2022-08-22T04:44:41.145Z,10.00
2022-08-22T04:49:51.816Z,12.07
2022-08-22T04:55:21.441Z,11.90
2022-08-22T05:00:23.637Z,10.27
2022-08-22T05:05:34.999Z,9.75
2022-08-22T05:10:41.816Z,12.80
2022-08-22T05:15:48.338Z,12.93
2022-08-22T05:20:52.698Z,14.30
2022-08-22T05:26:00.438Z,13.93
2022-08-22T05:31:13.671Z,14.27
2022-08-22T05:36:28.670Z,11.82
2022-08-22T05:41:38.073Z,10.95
2022-08-22T05:46:43.894Z,10.15
2022-08-22T05:51:49.151Z,15.23
2022-08-22T05:57:07.805Z,11.77
2022-08-22T06:02:20.941Z,13.27
2022-08-22T06:07:33.644Z,11.55
2022-08-22T06:12:54.199Z,13.25
2022-08-22T06:18:01.772Z,21.83
2022-08-22T06:23:06.756Z,15.90
2022-08-22T06:28:13.704Z,14.15
2022-08-22T06:33:21.588Z,12.90
2022-08-22T06:38:29.441Z,14.27
2022-08-22T06:43:43.793Z,12.85
2022-08-22T06:48:46.348Z,10.55
2022-08-22T06:53:53.597Z,10.43
2022-08-22T06:58:59.273Z,11.07
2022-08-22T07:04:08.787Z,17.38
2022-08-22T07:09:29.258Z,16.92
2022-08-22T07:14:42.955Z,11.13
2022-08-22T07:20:00.174Z,10.35
2022-08-22T07:25:11.276Z,12.68
2022-08-22T07:30:28.018Z,14.40
2022-08-22T07:35:41.938Z,17.15
2022-08-22T07:41:26.703Z,13.70
2022-08-22T07:46:31.445Z,13.52
2022-08-22T07:51:47.074Z,10.23
2022-08-22T07:56:59.594Z,11.23
2022-08-22T08:02:05.820Z,11.82
2022-08-22T08:07:10.670Z,10.75
2022-08-22T08:12:14.120Z,10.50
2022-08-22T08:17:32.344Z,9.50
2022-08-22T08:22:35.208Z,9.05
2022-08-22T08:27:56.828Z,10.02
2022-08-22T08:33:24.713Z,9.65
2022-08-22T08:38:29.125Z,10.05
2022-08-22T08:43:40.916Z,6.47
2022-08-22T08:49:01.073Z,7.70
2022-08-22T08:54:43.273Z,5.45
2022-08-22T09:00:07.479Z,7.57
2022-08-22T09:05:43.255Z,7.07
2022-08-22T09:10:58.331Z,5.68
2022-08-22T09:16:14.007Z,6.18
2022-08-22T09:21:41.355Z,4.60
2022-08-22T09:27:03.805Z,3.10
2022-08-22T09:32:33.684Z,3.15
2022-08-22T09:37:52.190Z,4.25
2022-08-22T09:43:11.459Z,3.38
2022-08-22T09:48:44.533Z,3.33
2022-08-22T09:54:02.260Z,4.18
2022-08-22T09:59:12.785Z,4.80
2022-08-22T10:04:56.262Z,5.63
2022-08-22T10:10:46.578Z,3.63
2022-08-22T10:15:56.610Z,2.60
2022-08-22T10:21:26.624Z,3.00
2022-08-22T10:26:47.468Z,4.30
2022-08-22T10:31:59.504Z,6.68
2022-08-22T10:37:10.521Z,5.60
2022-08-22T10:42:35.538Z,3.03
2022-08-22T10:48:00.492Z,3.92
2022-08-22T10:53:35.043Z,3.38
2022-08-22T10:58:54.852Z,5.10
2022-08-22T11:04:05.352Z,3.13
2022-08-22T11:09:17.186Z,3.15
2022-08-22T11:14:37.915Z,4.45
2022-08-22T11:19:57.739Z,4.80
2022-08-22T11:25:29.236Z,4.82
2022-08-22T11:31:10.670Z,5.28
2022-08-22T11:36:37.390Z,3.03
2022-08-22T11:41:56.373Z,6.15
2022-08-22T11:47:01.709Z,4.80
2022-08-22T11:52:22.338Z,5.18
2022-08-22T11:57:44.251Z,3.47
2022-08-22T12:03:14.595Z,6.05
2022-08-22T12:08:46.359Z,4.72
2022-08-22T12:14:04.678Z,5.10
2022-08-22T12:19:08.207Z,2.13
2022-08-22T12:24:31.701Z,3.60
2022-08-22T12:29:52.341Z,4.88
2022-08-22T12:35:14.608Z,4.55
2022-08-22T12:40:19.173Z,3.25
2022-08-22T12:45:26.770Z,3.08
2022-08-22T12:50:37.643Z,4.88
2022-08-22T12:55:51.369Z,4.68
2022-08-22T13:01:01.164Z,4.82
2022-08-22T13:06:22.681Z,5.80
2022-08-22T13:11:25.780Z,2.85
2022-08-22T13:16:48.832Z,5.30
2022-08-22T13:22:08.896Z,4.57
2022-08-22T13:27:22.154Z,5.82
2022-08-22T13:32:34.081Z,4.35
2022-08-22T13:37:40.655Z,4.95
2022-08-22T13:42:48.081Z,5.05
2022-08-22T13:47:58.924Z,4.32
2022-08-22T13:53:12.010Z,3.70
2022-08-22T13:58:32.275Z,4.05
2022-08-22T14:03:48.830Z,5.43
2022-08-22T14:08:56.124Z,4.22
2022-08-22T14:14:02.207Z,4.35
2022-08-22T14:19:34.955Z,6.35
2022-08-22T14:25:00.753Z,4.18
2022-08-22T14:30:18.672Z,3.50
2022-08-22T14:35:35.071Z,4.15
2022-08-22T14:40:41.306Z,5.78
2022-08-22T14:45:53.862Z,5.18
2022-08-22T14:51:10.208Z,4.32
2022-08-22T14:56:23.837Z,4.57
2022-08-22T15:01:29.804Z,4.22
2022-08-22T15:06:48.187Z,4.55
2022-08-22T15:11:50.620Z,3.10
2022-08-22T15:16:58.457Z,4.10
2022-08-22T15:22:25.736Z,4.00
2022-08-22T15:27:32.017Z,5.40
2022-08-22T15:32:42.012Z,3.10
2022-08-22T15:38:36.528Z,4.32
2022-08-22T15:43:47.409Z,5.05
2022-08-22T15:49:01.010Z,3.65
2022-08-22T15:54:31.537Z,3.03
2022-08-22T16:00:01.317Z,4.10
2022-08-22T16:05:11.648Z,4.82
2022-08-22T16:10:39.890Z,3.85
2022-08-22T16:15:55.726Z,4.63
2022-08-22T16:20:58.224Z,5.78
2022-08-22T16:26:10.244Z,4.25
2022-08-22T16:31:28.834Z,4.00
2022-08-22T16:36:41.506Z,5.53
2022-08-22T16:41:44.226Z,3.83
2022-08-22T16:46:47.748Z,4.20
2022-08-22T16:52:24.656Z,3.85
2022-08-22T16:58:05.377Z,4.60
2022-08-22T17:03:45.494Z,4.68
2022-08-22T17:08:53.796Z,3.17
2022-08-22T17:14:27.317Z,3.10
2022-08-22T17:19:41.016Z,3.08
2022-08-22T17:25:03.065Z,4.47
2022-08-22T17:30:10.772Z,8.10
2022-08-22T17:35:55.179Z,5.03
2022-08-22T17:41:25.907Z,4.68
2022-08-22T17:46:38.807Z,4.28
2022-08-22T17:52:00.485Z,4.30
2022-08-22T17:57:14.500Z,2.92
2022-08-22T18:02:21.347Z,2.97
2022-08-22T18:07:50.635Z,5.10
2022-08-22T18:13:29.674Z,6.45
2022-08-22T18:18:37.366Z,4.20
2022-08-22T18:23:44.022Z,6.85
2022-08-22T18:29:07.773Z,5.22
2022-08-22T18:34:45.800Z,2.80
2022-08-22T18:39:55.081Z,2.70
2022-08-22T18:44:57.108Z,3.97
2022-08-22T18:50:02.105Z,3.17
2022-08-22T18:55:06.777Z,2.97
2022-08-22T19:00:19.456Z,5.30
2022-08-22T19:05:38.988Z,3.05
2022-08-22T19:10:55.647Z,4.03
2022-08-22T19:16:15.170Z,4.50
2022-08-22T19:21:43.589Z,6.63
2022-08-22T19:26:48.276Z,5.30
2022-08-22T19:31:51.738Z,5.28
2022-08-22T19:37:11.570Z,4.13
2022-08-22T19:42:36.639Z,4.03
2022-08-22T19:47:42.190Z,5.43
2022-08-22T19:52:54.462Z,4.63
2022-08-22T19:58:13.293Z,5.35
2022-08-22T20:03:40.118Z,4.75
2022-08-22T20:09:02.070Z,6.93
2022-08-22T20:14:25.001Z,5.03
2022-08-22T20:20:16.552Z,4.43
2022-08-22T20:25:33.318Z,5.18
2022-08-22T20:30:43.401Z,5.97
2022-08-22T20:35:54.380Z,5.28
2022-08-22T20:41:11.650Z,7.10
2022-08-22T20:46:17.655Z,7.60
2022-08-22T20:51:25.001Z,5.50
2022-08-22T20:56:35.552Z,5.47
2022-08-22T21:01:38.591Z,6.03
2022-08-22T21:06:40.372Z,4.95
2022-08-22T21:11:50.514Z,6.22
2022-08-22T21:16:53.311Z,6.18
2022-08-22T21:22:14.352Z,6.00
2022-08-22T21:27:39.503Z,5.60
2022-08-22T21:32:52.300Z,6.28
2022-08-22T21:37:59.151Z,5.95
2022-08-22T21:43:26.716Z,7.38
2022-08-22T21:48:37.813Z,5.07
2022-08-22T21:53:39.800Z,5.72
2022-08-22T21:58:42.580Z,7.93
2022-08-22T22:03:44.358Z,6.10
2022-08-22T22:08:46.442Z,9.52
2022-08-22T22:13:48.942Z,6.88
2022-08-22T22:18:50.633Z,8.68
2022-08-22T22:23:52.658Z,8.18
2022-08-22T22:28:54.645Z,6.60
2022-08-22T22:33:56.402Z,6.35
2022-08-22T22:38:58.567Z,8.27
2022-08-22T22:44:00.443Z,7.97
2022-08-22T22:49:02.178Z,5.78
2022-08-22T22:54:03.958Z,7.05
2022-08-22T22:59:12.735Z,7.22
2022-08-22T23:04:16.358Z,10.95
2022-08-22T23:09:18.099Z,8.82
2022-08-22T23:14:20.178Z,5.88
2022-08-22T23:19:21.869Z,5.40
2022-08-22T23:24:25.093Z,7.38
2022-08-22T23:29:26.933Z,6.03
2022-08-22T23:34:35.457Z,8.32
2022-08-22T23:39:38.419Z,7.80
2022-08-22T23:44:41.613Z,6.57
2022-08-22T23:49:43.848Z,9.20
2022-08-22T23:54:45.647Z,5.82
2022-08-22T23:59:57.826Z,5.57
